createdAt,value
2023-12-05T00:02:19.516Z,98747.46
2023-12-05T00:04:47.949Z,98743.86
2023-12-05T00:07:16.432Z,98742.69
2023-12-05T00:09:44.648Z,98745.00
2023-12-05T00:12:13.318Z,98738.81
2023-12-05T00:14:41.536Z,98737.11
2023-12-05T00:17:09.984Z,98739.38
2023-12-05T00:19:38.239Z,98739.95
2023-12-05T00:22:06.601Z,98742.39
2023-12-05T00:24:34.759Z,98743.97
2023-12-05T00:27:02.928Z,98740.19
2023-12-05T00:29:31.073Z,98745.36
2023-12-05T00:31:59.203Z,98749.50
2023-12-05T00:34:27.822Z,98751.55
2023-12-05T00:36:56.124Z,98747.24
2023-12-05T00:39:24.363Z,98746.23
2023-12-05T00:41:52.850Z,98749.19
2023-12-05T00:44:21.067Z,98753.71
2023-12-05T00:46:49.718Z,98757.70
2023-12-05T00:49:17.944Z,98751.52
2023-12-05T00:51:46.128Z,98750.81
2023-12-05T00:54:15.532Z,98747.00
2023-12-05T00:56:43.907Z,98745.48
2023-12-05T00:59:12.193Z,98745.31
2023-12-05T01:01:40.350Z,98746.33
2023-12-05T01:04:08.554Z,98746.64
2023-12-05T01:06:36.983Z,98745.23
2023-12-05T01:09:07.782Z,98745.04
2023-12-05T01:11:36.020Z,98737.80
2023-12-05T01:14:04.720Z,98736.38
2023-12-05T01:16:32.955Z,98737.35
2023-12-05T01:19:01.543Z,98738.87
2023-12-05T01:21:29.953Z,98735.90
2023-12-05T01:23:58.133Z,98735.36
2023-12-05T01:26:26.363Z,98732.74
2023-12-05T01:28:56.274Z,98728.23
2023-12-05T01:31:25.193Z,98722.84
2023-12-05T01:33:53.405Z,98719.67
2023-12-05T01:36:21.560Z,98715.64
2023-12-05T01:38:49.825Z,98713.85
2023-12-05T01:41:18.015Z,98715.38
2023-12-05T01:43:46.128Z,98716.21
2023-12-05T01:46:14.988Z,98714.10
2023-12-05T01:48:43.695Z,98712.32
2023-12-05T01:51:12.444Z,98712.42
2023-12-05T01:53:42.306Z,98714.55
2023-12-05T01:56:12.581Z,98712.41
2023-12-05T01:58:41.273Z,98712.85
2023-12-05T02:01:11.656Z,98712.09
2023-12-05T02:03:41.156Z,98712.21
2023-12-05T02:06:09.857Z,98711.17
2023-12-05T02:08:39.274Z,98709.39
2023-12-05T02:11:08.064Z,98708.02
2023-12-05T02:13:36.227Z,98703.84
2023-12-05T02:16:22.736Z,98698.20
2023-12-05T02:19:17.046Z,98694.81
2023-12-05T02:21:50.622Z,98691.48
2023-12-05T02:24:34.530Z,98692.06
2023-12-05T02:27:43.276Z,98689.90
2023-12-05T02:30:13.077Z,98681.16
2023-12-05T02:32:41.370Z,98682.48
2023-12-05T02:35:12.027Z,98678.33
2023-12-05T02:37:49.364Z,98679.24
2023-12-05T02:40:28.750Z,98668.76
2023-12-05T02:42:59.202Z,98667.33
2023-12-05T02:45:32.253Z,98666.21
2023-12-05T02:48:02.592Z,98662.19
2023-12-05T02:50:31.105Z,98664.91
2023-12-05T02:52:59.297Z,98660.88
2023-12-05T02:55:27.425Z,98655.81
2023-12-05T02:57:55.599Z,98660.59
2023-12-05T03:00:23.809Z,98662.95
2023-12-05T03:02:52.074Z,98659.59
2023-12-05T03:05:20.577Z,98656.91
2023-12-05T03:07:48.664Z,98649.05
2023-12-05T03:10:16.833Z,98646.52
2023-12-05T03:12:45.070Z,98647.29
2023-12-05T03:15:13.426Z,98642.67
2023-12-05T03:17:41.592Z,98644.34
2023-12-05T03:20:10.213Z,98648.07
2023-12-05T03:22:38.917Z,98650.77
2023-12-05T03:25:07.822Z,98649.33
2023-12-05T03:27:36.897Z,98647.73
2023-12-05T03:30:06.157Z,98648.44
2023-12-05T03:32:34.640Z,98643.96
2023-12-05T03:35:02.877Z,98646.94
2023-12-05T03:37:31.038Z,98643.66
2023-12-05T03:39:59.192Z,98642.05
2023-12-05T03:42:27.389Z,98643.25
2023-12-05T03:44:55.572Z,98641.36
2023-12-05T03:47:23.880Z,98638.80
2023-12-05T03:49:52.044Z,98642.77
2023-12-05T03:52:20.191Z,98641.23
2023-12-05T03:54:48.372Z,98641.27
2023-12-05T03:57:16.633Z,98646.29
2023-12-05T03:59:46.697Z,98647.78
2023-12-05T04:02:14.934Z,98649.17
2023-12-05T04:04:43.281Z,98648.05
2023-12-05T04:07:11.778Z,98647.79
2023-12-05T04:09:39.925Z,98648.65
2023-12-05T04:12:08.211Z,98642.84
2023-12-05T04:14:36.828Z,98645.27
2023-12-05T04:17:04.953Z,98643.31
2023-12-05T04:19:33.301Z,98639.59
2023-12-05T04:22:01.624Z,98639.27
2023-12-05T04:24:29.775Z,98638.96
2023-12-05T04:26:58.118Z,98635.89
2023-12-05T04:29:26.284Z,98631.52
2023-12-05T04:31:54.448Z,98635.93
2023-12-05T04:34:23.054Z,98636.19
2023-12-05T04:36:52.080Z,98639.17
2023-12-05T04:39:20.510Z,98640.40
2023-12-05T04:41:48.768Z,98636.61
2023-12-05T04:44:16.922Z,98630.23
2023-12-05T04:46:45.123Z,98628.30
2023-12-05T04:49:13.395Z,98624.15
2023-12-05T04:51:42.150Z,98619.33
2023-12-05T04:54:10.433Z,98618.17
2023-12-05T04:56:38.587Z,98622.85
2023-12-05T04:59:06.894Z,98620.90
2023-12-05T05:01:35.138Z,98624.15
2023-12-05T05:04:04.729Z,98617.05
2023-12-05T05:06:33.387Z,98617.71
2023-12-05T05:09:01.920Z,98620.13
2023-12-05T05:11:30.053Z,98619.27
2023-12-05T05:13:59.297Z,98622.70
2023-12-05T05:16:28.565Z,98619.73
2023-12-05T05:18:56.865Z,98616.65
2023-12-05T05:21:25.236Z,98614.76
2023-12-05T05:23:53.623Z,98616.66
2023-12-05T05:26:22.061Z,98619.12
2023-12-05T05:28:50.286Z,98619.27
2023-12-05T05:31:18.459Z,98617.68
2023-12-05T05:33:46.666Z,98621.67
2023-12-05T05:36:16.596Z,98622.05
2023-12-05T05:38:45.089Z,98618.86
2023-12-05T05:41:13.163Z,98616.70
2023-12-05T05:43:41.615Z,98615.09
2023-12-05T05:46:09.793Z,98608.99
2023-12-05T05:48:37.985Z,98607.27
2023-12-05T05:51:06.715Z,98608.68
2023-12-05T05:53:34.882Z,98609.50
2023-12-05T05:56:03.101Z,98600.27
2023-12-05T05:58:31.394Z,98600.75
2023-12-05T06:00:59.721Z,98598.70
2023-12-05T06:03:29.795Z,98598.88
2023-12-05T06:06:00.604Z,98597.09
2023-12-05T06:08:29.106Z,98598.06
2023-12-05T06:10:57.274Z,98604.03
2023-12-05T06:13:26.445Z,98608.10
2023-12-05T06:15:55.010Z,98599.92
2023-12-05T06:18:23.593Z,98605.27
2023-12-05T06:20:53.159Z,98610.70
2023-12-05T06:23:21.299Z,98612.09
2023-12-05T06:25:49.445Z,98613.15
2023-12-05T06:28:17.637Z,98616.44
2023-12-05T06:30:45.834Z,98613.69
2023-12-05T06:33:14.119Z,98619.36
2023-12-05T06:35:42.602Z,98620.52
2023-12-05T06:38:10.828Z,98621.41
2023-12-05T06:40:39.007Z,98616.86
2023-12-05T06:43:08.365Z,98622.59
2023-12-05T06:45:36.774Z,98618.84
2023-12-05T06:48:05.916Z,98619.66
2023-12-05T06:50:34.419Z,98628.60
2023-12-05T06:53:02.942Z,98630.31
2023-12-05T06:55:31.503Z,98632.42
2023-12-05T06:57:59.782Z,98627.23
2023-12-05T07:00:27.953Z,98627.48
2023-12-05T07:02:56.476Z,98631.17
2023-12-05T07:05:25.012Z,98635.95
2023-12-05T07:07:53.447Z,98632.47
2023-12-05T07:10:21.613Z,98633.65
2023-12-05T07:12:49.750Z,98629.54
2023-12-05T07:15:18.107Z,98634.87
2023-12-05T07:17:46.470Z,98635.67
2023-12-05T07:20:15.367Z,98634.23
2023-12-05T07:22:44.391Z,98634.20
2023-12-05T07:25:12.600Z,98630.05
2023-12-05T07:27:41.096Z,98634.59
2023-12-05T07:30:09.636Z,98636.52
2023-12-05T07:32:37.921Z,98635.84
2023-12-05T07:35:06.659Z,98636.70
2023-12-05T07:37:35.122Z,98636.33
2023-12-05T07:40:06.902Z,98632.30
2023-12-05T07:42:35.178Z,98631.56
2023-12-05T07:45:05.827Z,98630.32
2023-12-05T07:47:34.174Z,98624.41
2023-12-05T07:50:02.462Z,98619.54
2023-12-05T07:52:30.813Z,98626.84
2023-12-05T07:54:58.973Z,98627.16
2023-12-05T07:57:27.977Z,98626.77
2023-12-05T07:59:56.189Z,98628.11
2023-12-05T08:02:24.355Z,98632.55
2023-12-05T08:04:52.636Z,98633.15
2023-12-05T08:07:20.952Z,98634.11
2023-12-05T08:09:49.107Z,98637.71
2023-12-05T08:12:17.480Z,98635.98
2023-12-05T08:14:45.760Z,98635.98
2023-12-05T08:17:14.909Z,98641.23
2023-12-05T08:19:43.079Z,98640.59
2023-12-05T08:22:11.250Z,98644.10
2023-12-05T08:24:39.375Z,98639.88
2023-12-05T08:27:08.987Z,98636.55
2023-12-05T08:29:37.147Z,98634.79
2023-12-05T08:32:06.512Z,98629.80
2023-12-05T08:34:35.587Z,98626.46
2023-12-05T08:37:04.076Z,98627.09
2023-12-05T08:39:32.573Z,98630.23
2023-12-05T08:42:00.953Z,98628.33
2023-12-05T08:44:29.382Z,98629.04
2023-12-05T08:46:57.575Z,98634.02
2023-12-05T08:49:25.900Z,98632.54
2023-12-05T08:51:54.497Z,98633.67
2023-12-05T08:54:23.069Z,98636.71
2023-12-05T08:56:52.936Z,98635.02
2023-12-05T08:59:22.371Z,98635.60
2023-12-05T09:01:51.623Z,98632.84
2023-12-05T09:04:19.996Z,98628.73
2023-12-05T09:06:48.417Z,98627.45
2023-12-05T09:09:18.216Z,98628.59
2023-12-05T09:11:46.663Z,98631.34
2023-12-05T09:14:14.851Z,98632.43
2023-12-05T09:16:42.934Z,98631.29
2023-12-05T09:19:11.174Z,98629.01
2023-12-05T09:21:39.578Z,98623.94
2023-12-05T09:24:10.630Z,98623.80
2023-12-05T09:26:39.121Z,98620.23
2023-12-05T09:29:07.391Z,98620.61
2023-12-05T09:31:35.601Z,98618.08
2023-12-05T09:34:04.462Z,98621.67
2023-12-05T09:36:32.719Z,98620.84
2023-12-05T09:39:00.922Z,98624.42
2023-12-05T09:41:29.283Z,98625.20
2023-12-05T09:44:01.858Z,98621.69
2023-12-05T09:46:37.624Z,98619.45
2023-12-05T09:49:15.444Z,98615.34
2023-12-05T09:51:44.171Z,98616.73
2023-12-05T09:54:14.224Z,98613.58
2023-12-05T09:56:42.922Z,98610.48
2023-12-05T09:59:12.098Z,98612.88
2023-12-05T10:01:43.631Z,98611.27
2023-12-05T10:04:13.082Z,98601.56
2023-12-05T10:06:41.511Z,98595.92
2023-12-05T10:09:12.051Z,98595.23
2023-12-05T10:11:42.121Z,98596.52
2023-12-05T10:14:10.575Z,98594.05
2023-12-05T10:16:39.117Z,98592.31
2023-12-05T10:19:10.972Z,98593.94
2023-12-05T10:21:39.629Z,98593.23
2023-12-05T10:24:08.041Z,98592.20
2023-12-05T10:26:45.330Z,98589.26
2023-12-05T10:29:13.786Z,98586.89
2023-12-05T10:31:42.636Z,98581.13
2023-12-05T10:34:11.097Z,98581.16
2023-12-05T10:36:39.324Z,98578.46
2023-12-05T10:39:07.527Z,98578.45
2023-12-05T10:41:36.373Z,98575.27
2023-12-05T10:44:04.593Z,98569.85
2023-12-05T10:46:36.710Z,98571.71
2023-12-05T10:49:06.205Z,98573.31
2023-12-05T10:51:34.661Z,98573.92
2023-12-05T10:54:03.936Z,98572.64
2023-12-05T10:56:32.103Z,98571.46
2023-12-05T10:59:01.770Z,98572.89
2023-12-05T11:01:30.349Z,98572.89
2023-12-05T11:04:02.280Z,98572.77
2023-12-05T11:06:31.574Z,98573.13
2023-12-05T11:08:59.910Z,98571.76
2023-12-05T11:11:29.539Z,98570.86
2023-12-05T11:13:59.556Z,98570.50
2023-12-05T11:16:36.348Z,98570.54
2023-12-05T11:19:50.619Z,98569.20
2023-12-05T11:22:47.120Z,98570.55
2023-12-05T11:25:36.799Z,98572.07
2023-12-05T11:28:32.403Z,98572.67
2023-12-05T11:31:06.559Z,98575.92
2023-12-05T11:33:47.103Z,98572.17
2023-12-05T11:36:30.156Z,98564.61
2023-12-05T11:39:00.193Z,98572.90
2023-12-05T11:41:29.004Z,98566.80
2023-12-05T11:44:12.652Z,98568.76
2023-12-05T11:46:51.341Z,98565.16
2023-12-05T11:49:54.547Z,98561.70
2023-12-05T11:52:27.388Z,98561.87
2023-12-05T11:54:56.299Z,98559.98
2023-12-05T11:57:25.752Z,98561.13
2023-12-05T11:59:55.661Z,98555.44
2023-12-05T12:02:33.110Z,98558.03
2023-12-05T12:05:09.918Z,98553.97
2023-12-05T12:07:58.090Z,98552.48
2023-12-05T12:10:27.895Z,98548.75
2023-12-05T12:12:56.547Z,98545.36
2023-12-05T12:15:25.157Z,98545.26
2023-12-05T12:17:53.463Z,98542.35
2023-12-05T12:20:21.850Z,98545.27
2023-12-05T12:22:51.729Z,98549.20
2023-12-05T12:25:20.677Z,98551.83
2023-12-05T12:27:49.046Z,98557.45
2023-12-05T12:30:20.505Z,98556.06
2023-12-05T12:33:06.308Z,98552.39
2023-12-05T12:35:36.114Z,98555.73
2023-12-05T12:38:04.477Z,98556.38
2023-12-05T12:40:36.186Z,98557.77
2023-12-05T12:43:04.671Z,98559.05
2023-12-05T12:45:33.767Z,98556.30
2023-12-05T12:48:06.175Z,98557.26
2023-12-05T12:50:34.887Z,98554.23
2023-12-05T12:53:03.198Z,98548.95
2023-12-05T12:55:31.601Z,98552.80
2023-12-05T12:58:04.156Z,98554.02
2023-12-05T13:00:38.037Z,98554.94
2023-12-05T13:03:08.580Z,98559.70
2023-12-05T13:05:41.118Z,98560.49
2023-12-05T13:08:09.786Z,98563.09
2023-12-05T13:10:42.210Z,98563.85
2023-12-05T13:13:10.540Z,98563.52
2023-12-05T13:15:39.898Z,98566.46
2023-12-05T13:18:08.987Z,98568.77
2023-12-05T13:20:57.696Z,98566.98
2023-12-05T13:23:26.369Z,98564.56
2023-12-05T13:25:56.478Z,98560.26
2023-12-05T13:28:24.722Z,98561.52
2023-12-05T13:30:53.258Z,98561.86
2023-12-05T13:33:21.486Z,98565.19
2023-12-05T13:35:51.068Z,98564.57
2023-12-05T13:38:20.553Z,98558.34
2023-12-05T13:40:49.055Z,98552.99
2023-12-05T13:43:18.399Z,98558.36
2023-12-05T13:45:46.624Z,98569.35
2023-12-05T13:48:15.150Z,98570.27
2023-12-05T13:50:43.460Z,98572.42
2023-12-05T13:53:17.195Z,98574.46
2023-12-05T13:55:45.302Z,98574.11
2023-12-05T13:58:13.549Z,98571.81
2023-12-05T14:00:41.947Z,98564.20
2023-12-05T14:03:10.309Z,98565.77
2023-12-05T14:05:38.752Z,98572.59
2023-12-05T14:08:07.371Z,98575.27
2023-12-05T14:10:41.803Z,98574.59
2023-12-05T14:13:13.414Z,98572.23
2023-12-05T14:15:42.873Z,98571.44
2023-12-05T14:18:11.320Z,98576.39
2023-12-05T14:20:39.469Z,98584.91
2023-12-05T14:23:07.713Z,98589.16
2023-12-05T14:25:35.928Z,98587.90
2023-12-05T14:28:05.847Z,98586.94
2023-12-05T14:30:34.639Z,98586.88
2023-12-05T14:33:02.836Z,98582.71
2023-12-05T14:35:31.181Z,98577.52
2023-12-05T14:37:59.753Z,98580.56
2023-12-05T14:40:27.990Z,98582.81
2023-12-05T14:42:56.610Z,98578.95
2023-12-05T14:45:29.539Z,98578.29
2023-12-05T14:48:01.134Z,98575.92
2023-12-05T14:50:33.999Z,98574.09
2023-12-05T14:53:02.257Z,98573.98
2023-12-05T14:55:31.074Z,98572.95
2023-12-05T14:57:59.893Z,98573.07
2023-12-05T15:00:31.784Z,98575.85
2023-12-05T15:03:02.790Z,98580.55
2023-12-05T15:05:33.300Z,98582.29
2023-12-05T15:08:01.583Z,98583.52
2023-12-05T15:10:30.801Z,98581.79
2023-12-05T15:12:59.068Z,98583.70
2023-12-05T15:15:27.865Z,98592.30
2023-12-05T15:17:56.522Z,98595.23
2023-12-05T15:20:26.467Z,98593.67
2023-12-05T15:22:54.877Z,98590.23
2023-12-05T15:25:25.009Z,98591.73
2023-12-05T15:27:53.362Z,98592.80
2023-12-05T15:30:22.108Z,98599.80
2023-12-05T15:32:54.930Z,98598.66
2023-12-05T15:35:24.018Z,98602.13
2023-12-05T15:37:54.854Z,98600.21
2023-12-05T15:40:23.797Z,98604.38
2023-12-05T15:42:52.050Z,98600.84
2023-12-05T15:45:20.671Z,98604.54
2023-12-05T15:47:51.122Z,98602.39
2023-12-05T15:50:20.017Z,98604.70
2023-12-05T15:52:49.319Z,98606.45
2023-12-05T15:55:17.588Z,98609.37
2023-12-05T15:57:46.126Z,98609.86
2023-12-05T16:00:14.702Z,98610.52
2023-12-05T16:03:02.820Z,98611.05
2023-12-05T16:05:31.816Z,98614.46
2023-12-05T16:08:00.403Z,98616.93
2023-12-05T16:10:30.151Z,98621.45
2023-12-05T16:12:58.473Z,98623.75
2023-12-05T16:15:26.944Z,98618.80
2023-12-05T16:17:58.643Z,98614.04
2023-12-05T16:20:27.013Z,98615.08
2023-12-05T16:22:55.185Z,98616.42
2023-12-05T16:25:23.586Z,98610.21
2023-12-05T16:27:52.132Z,98608.86
2023-12-05T16:30:20.476Z,98608.55
2023-12-05T16:32:49.138Z,98609.63
2023-12-05T16:35:17.400Z,98612.14
2023-12-05T16:37:48.065Z,98619.81
2023-12-05T16:40:16.599Z,98620.22
2023-12-05T16:42:45.360Z,98631.56
2023-12-05T16:45:14.985Z,98633.15
2023-12-05T16:47:43.662Z,98627.64
2023-12-05T16:50:14.238Z,98629.41
2023-12-05T16:52:43.270Z,98630.05
2023-12-05T16:55:11.498Z,98630.28
2023-12-05T16:57:47.235Z,98630.74
2023-12-05T17:00:16.409Z,98631.87
2023-12-05T17:02:45.017Z,98634.89
2023-12-05T17:05:14.224Z,98630.38
2023-12-05T17:07:42.639Z,98637.77
2023-12-05T17:10:13.700Z,98637.95
2023-12-05T17:12:43.094Z,98654.52
2023-12-05T17:15:11.444Z,98659.42
2023-12-05T17:17:39.617Z,98661.80
2023-12-05T17:20:09.839Z,98658.89
2023-12-05T17:22:38.021Z,98653.30
2023-12-05T17:25:07.109Z,98656.67
2023-12-05T17:27:35.567Z,98652.78
2023-12-05T17:30:07.472Z,98650.30
2023-12-05T17:32:35.827Z,98654.69
2023-12-05T17:35:04.927Z,98655.23
2023-12-05T17:37:33.455Z,98660.70
2023-12-05T17:40:04.138Z,98661.67
2023-12-05T17:42:33.528Z,98659.23
2023-12-05T17:45:01.764Z,98661.19
2023-12-05T17:47:30.122Z,98661.94
2023-12-05T17:49:58.462Z,98662.52
2023-12-05T17:52:27.513Z,98663.23
2023-12-05T17:54:55.846Z,98660.34
2023-12-05T17:57:24.216Z,98654.34
2023-12-05T17:59:52.422Z,98653.50
2023-12-05T18:02:20.885Z,98654.77
2023-12-05T18:04:49.905Z,98653.27
2023-12-05T18:07:51.828Z,98659.16
2023-12-05T18:10:07.198Z,98659.52
2023-12-05T18:12:35.678Z,98662.46
2023-12-05T18:15:05.727Z,98662.66
2023-12-05T18:17:33.931Z,98663.70
2023-12-05T18:20:02.716Z,98661.15
2023-12-05T18:22:31.073Z,98664.83
2023-12-05T18:25:01.293Z,98669.93
2023-12-05T18:27:29.611Z,98669.70
2023-12-05T18:29:58.055Z,98668.53
2023-12-05T18:32:26.374Z,98670.47
2023-12-05T18:34:55.718Z,98677.58
2023-12-05T18:37:25.009Z,98678.33
2023-12-05T18:39:54.131Z,98680.61
2023-12-05T18:42:22.569Z,98677.70
2023-12-05T18:44:50.888Z,98676.70
2023-12-05T18:47:19.361Z,98676.34
2023-12-05T18:49:48.153Z,98682.08
2023-12-05T18:52:17.103Z,98689.05
2023-12-05T18:54:45.599Z,98685.86
2023-12-05T18:57:14.803Z,98683.86
2023-12-05T18:59:43.998Z,98688.20
2023-12-05T19:02:12.175Z,98687.71
2023-12-05T19:04:40.714Z,98686.75
2023-12-05T19:07:11.477Z,98685.64
2023-12-05T19:09:40.364Z,98679.69
2023-12-05T19:12:09.210Z,98681.63
2023-12-05T19:14:37.413Z,98679.41
2023-12-05T19:17:09.211Z,98675.54
2023-12-05T19:19:37.464Z,98678.19
2023-12-05T19:22:05.903Z,98686.86
2023-12-05T19:24:34.135Z,98685.00
2023-12-05T19:27:02.531Z,98683.98
2023-12-05T19:29:30.848Z,98681.92
2023-12-05T19:31:59.131Z,98682.12
2023-12-05T19:34:35.491Z,98680.73
2023-12-05T19:37:11.585Z,98684.52
2023-12-05T19:39:43.516Z,98687.25
2023-12-05T19:42:16.781Z,98691.36
2023-12-05T19:44:47.846Z,98689.11
2023-12-05T19:47:19.356Z,98689.77
2023-12-05T19:49:47.989Z,98689.42
2023-12-05T19:52:16.466Z,98691.47
2023-12-05T19:54:45.218Z,98688.84
2023-12-05T19:57:13.532Z,98686.73
2023-12-05T19:59:45.979Z,98686.52
2023-12-05T20:02:14.479Z,98681.67
2023-12-05T20:04:43.458Z,98679.56
2023-12-05T20:07:11.844Z,98682.48
2023-12-05T20:09:41.248Z,98687.63
2023-12-05T20:12:09.783Z,98688.84
2023-12-05T20:14:38.081Z,98693.04
2023-12-05T20:17:06.374Z,98696.52
2023-12-05T20:19:35.014Z,98694.08
2023-12-05T20:22:08.963Z,98695.93
2023-12-05T20:24:37.243Z,98699.41
2023-12-05T20:27:08.545Z,98700.96
2023-12-05T20:29:37.337Z,98701.42
2023-12-05T20:32:06.798Z,98700.36
2023-12-05T20:34:35.039Z,98701.22
2023-12-05T20:37:04.672Z,98706.85
2023-12-05T20:39:36.478Z,98711.08
2023-12-05T20:42:07.851Z,98710.95
2023-12-05T20:44:36.706Z,98711.13
2023-12-05T20:47:07.020Z,98714.59
2023-12-05T20:49:35.385Z,98717.86
2023-12-05T20:52:05.248Z,98719.44
2023-12-05T20:54:33.452Z,98717.74
2023-12-05T20:57:02.553Z,98718.96
2023-12-05T20:59:31.079Z,98715.73
2023-12-05T21:01:59.482Z,98710.42
2023-12-05T21:04:27.757Z,98711.66
2023-12-05T21:06:56.102Z,98709.84
2023-12-05T21:09:24.252Z,98708.17
2023-12-05T21:11:52.371Z,98710.64
2023-12-05T21:14:20.648Z,98710.88
2023-12-05T21:16:48.909Z,98711.44
2023-12-05T21:19:17.146Z,98712.02
2023-12-05T21:21:45.346Z,98713.77
2023-12-05T21:24:13.701Z,98716.73
2023-12-05T21:26:41.880Z,98716.77
2023-12-05T21:29:10.153Z,98717.46
2023-12-05T21:31:38.347Z,98712.16
2023-12-05T21:34:06.548Z,98708.24
2023-12-05T21:36:34.808Z,98703.11
2023-12-05T21:39:03.784Z,98704.88
2023-12-05T21:41:31.954Z,98703.17
2023-12-05T21:44:00.187Z,98706.95
2023-12-05T21:46:29.807Z,98709.52
2023-12-05T21:49:02.913Z,98713.84
2023-12-05T21:51:33.568Z,98716.45
2023-12-05T21:54:03.356Z,98716.64
2023-12-05T21:56:32.140Z,98717.50
2023-12-05T21:59:00.622Z,98722.66
2023-12-05T22:01:31.260Z,98722.84
2023-12-05T22:03:59.796Z,98730.42
2023-12-05T22:06:28.781Z,98728.04
2023-12-05T22:08:57.003Z,98726.85
2023-12-05T22:11:25.600Z,98728.05
2023-12-05T22:13:53.836Z,98729.46
2023-12-05T22:16:22.027Z,98731.56
2023-12-05T22:18:50.680Z,98733.48
2023-12-05T22:21:20.999Z,98740.52
2023-12-05T22:23:49.198Z,98743.46
2023-12-05T22:26:19.814Z,98745.88
2023-12-05T22:28:47.929Z,98747.45
2023-12-05T22:31:23.605Z,98746.63
2023-12-05T22:33:52.392Z,98751.98
2023-12-05T22:36:22.778Z,98752.52
2023-12-05T22:38:52.435Z,98758.39
2023-12-05T22:41:21.194Z,98768.35
2023-12-05T22:43:50.419Z,98766.98
2023-12-05T22:46:18.984Z,98769.05
2023-12-05T22:48:47.392Z,98769.05
2023-12-05T22:51:16.309Z,98766.66
2023-12-05T22:53:44.606Z,98761.33
2023-12-05T22:56:12.884Z,98758.74
2023-12-05T22:58:41.216Z,98760.45
2023-12-05T23:01:09.436Z,98759.27
2023-12-05T23:03:37.701Z,98759.42
2023-12-05T23:06:06.152Z,98756.30
2023-12-05T23:08:34.306Z,98752.02
2023-12-05T23:11:02.549Z,98751.33
2023-12-05T23:13:30.863Z,98749.23
2023-12-05T23:16:00.384Z,98747.81
2023-12-05T23:18:29.388Z,98747.41
2023-12-05T23:20:58.158Z,98746.20
2023-12-05T23:23:26.446Z,98744.52
2023-12-05T23:25:54.646Z,98738.47
2023-12-05T23:28:25.834Z,98738.26
2023-12-05T23:30:54.633Z,98736.52
2023-12-05T23:33:23.183Z,98735.12
2023-12-05T23:35:51.536Z,98728.95
2023-12-05T23:38:19.671Z,98728.33
2023-12-05T23:40:48.325Z,98731.63
2023-12-05T23:43:16.449Z,98735.77
2023-12-05T23:45:44.772Z,98733.02
2023-12-05T23:48:13.560Z,98728.55
2023-12-05T23:50:41.833Z,98723.01
2023-12-05T23:53:10.832Z,98722.98
2023-12-05T23:55:39.033Z,98721.23
2023-12-05T23:58:07.211Z,98722.25
